Horton, Texas
Current Conditions -  °F | °C
As of 8:35 AM on Thursday 23 Oct 2014 (Local Time) from KASL Reporting Station
Clear Clear  
Wind Chill: 58°   Ceiling: Unl
Heat Index: 58°   Visibility: 10mi
Dew Point: 54°   Wind: 0mph
Humidity: 86%   Direction: NA
Pressure: 30.19"   Gusts: NA
Location:  32.2219°N, 94.1501°W
Report Text: KASL 231335Z AUTO 00000KT 10SM CLR 15/12 A3019 RMK AO1 T01460122
Loading
Personal Weather Stations






























Interactive Weather Map
Tropical Storm Tracking
New forecast layout! Learn more

10-Day Weather Forecast

Advertisements
Track Severe Weather on mobile